Chalk Hill, PA

4:48 PM EDT on April 18, 2015 (GMT -0400)
Morgantown Municipal-Hart | | Change Station
CLOSE
Current Station
Airport
Location: Morgantown,
Elevation: 1247 ft
Nearby Weather Stations

Elev 1247 ft 39.64 °N, 79.92 °W | Updated 55 minutes ago

Clear
Clear
75 °F
Feels Like 75 °F
N
0
Wind Variable Wind from North

Today
High -- | Low -- °F
--% Chance of Precip.
Yesterday
High -- | Low -- °F
Precip. -- in
6:36 AM 7:59 PM
New Moon, 0% visible
Pressure 30.01 in
Visibility 10.0 miles
Clouds Clear
Dew Point 40 °F
Humidity 28%
Rainfall 0.00 in
Snow Depth Not available.
UV 6 out of 12
Pollen 11.50 out of 12
Air Quality Not available.
Flu Activity Sporadic
METAR KMGW 181953Z 00000KT 10SM CLR 24/04 A3003 RMK AO2 SLP163 T02390044

More Conditions Fewer Conditions

Pressure 30.01 in
Visibility 10.0 miles
Clouds Clear
Dew Point 40 °F
Humidity 28%
Rainfall 0.00 in
Snow Depth Not available.
UV 6 out of 12
Pollen 11.50 out of 12
Air Quality Not available.
Flu Activity Sporadic
METAR KMGW 181953Z 00000KT 10SM CLR 24/04 A3003 RMK AO2 SLP163 T02390044

More Conditions Fewer Conditions

10-Day Weather Forecast

Almanac

Astronomy

Apr. 18, 2015 Rise Set
Actual Time
Civil Twilight
Nautical Twilight
Astronomical Twilight
Moon
Length of Visible Light
Length of Day
Tomorrow will be .
, % of the Moon is Illuminated

Today's Extremes

State Highs State Lows

Community

WunderPhotos

Upload Photos

1,814,525 photos uploaded!

WunderBlogs® & News

Nearby

Air Quality

  Air Quality AQ Index Pollutant
Not available.

Snow Depth

Station Depth Elevation

Earthquake Activity

City Distance Mag. Time & Date
Minimum magnitude displayed is 2.5.

Coastal Water Temperatures

Place Temperature

Stations

Nearby Weather Stations

Station Location Temp. Windchill Dew Point Humidity Wind Precip. Elev Updated Type